Overview Statistics Trail Chart Weather Telemetry Raw packets
 

This is the latest recevied weather packets stored in our database for station/object SV9TNF-51. If no packets are shown the sender has not sent any weather packets the latest 10 day(s).

<< 59 60 61 62 63 64 65 >>
Time Temp. Humidity Pressure Rain* Wind** Luminosity Snow
1788263596 37.78° C 31% 1011.5 hPa 0 mm 1.79 m/s, 162° - -
1788263296 37.22° C 30% 1011.5 hPa 0 mm 1.34 m/s, 165° - -
1788262996 37.22° C 29% 1011.5 hPa 0 mm 1.34 m/s, 120° - -
1788262695 37.22° C 30% 1011.5 hPa 0 mm 0.89 m/s, 115° - -
1788262395 36.67° C 30% 1011.5 hPa 0 mm 2.24 m/s, 152° - -
1788262095 35.56° C 31% 1011.5 hPa 0 mm 2.24 m/s, 144° - -
1788261795 35.56° C 32% 1011.5 hPa 0 mm 1.79 m/s, 115° - -
1788261495 35° C 33% 1011.5 hPa 0 mm 3.13 m/s, 126° - -
1788261195 35.56° C 32% 1011.5 hPa 0 mm 6.26 m/s, 162° - -
1788260895 35.56° C 32% 1011.5 hPa 0 mm 4.92 m/s, 129° - -
1788260595 35.56° C 33% 1011.5 hPa 0 mm 1.34 m/s, 113° - -
1788260295 34.44° C 35% 1011.5 hPa 0 mm 4.02 m/s, 103° - -
1788259994 35.56° C 33% 1011.5 hPa 0 mm 1.79 m/s, 130° - -
1788259694 35° C 35% 1011.5 hPa 0 mm 4.02 m/s, 103° - -
1788259394 35.56° C 36% 1011.5 hPa 0 mm 4.02 m/s, 123° - -
1788259094 33.89° C 39% 1011.5 hPa 0 mm 1.79 m/s, 120° - -
1788258794 34.44° C 39% 1011.5 hPa 0 mm 1.79 m/s, 292° - -
1788258494 33.89° C 40% 1011.5 hPa 0 mm 3.58 m/s, 140° - -
1788258194 34.44° C 40% 1011.5 hPa 0 mm 4.02 m/s, 61° - -
1788257894 33.89° C 39% 1011.5 hPa 0 mm 1.79 m/s, 174° - -
1788257594 34.44° C 39% 1011.5 hPa 0 mm 4.02 m/s, 64° - -
1788257294 35° C 36% 1011.5 hPa 0 mm 1.79 m/s, 139° - -
1788256994 34.44° C 38% 1011.5 hPa 0 mm 3.58 m/s, 128° - -
1788256693 34.44° C 37% 1011.5 hPa 0 mm 1.34 m/s, 129° - -
1788256393 33.89° C 39% 1011.5 hPa 0 mm 7.6 m/s, 337° - -

* Rain latest hour (hover to see other rain measurements)
** Current wind speed in m/s (hover to see current wind gust speed)